Date,TemperatureHighF,TemperatureAvgF,TemperatureLowF,DewpointHighF,DewpointAvgF,DewpointLowF,HumidityHigh,HumidityAvg,HumidityLow,PressureMaxIn,PressureMinIn,WindSpeedMaxMPH,WindSpeedAvgMPH,GustSpeedMaxMPH,PrecipitationSumIn
2013-1-1,44,41,37,40,35,28,86,80,64,29.68,29.55,2,0,2,0.54
2013-1-2,47,42,38,40,36,34,86,78,66,29.69,29.50,2,1,5,0.04
2013-1-3,46,37,25,34,30,18,85,75,54,29.86,29.65,3,1,7,0.00
2013-1-4,48,30,20,25,17,7,79,60,22,29.92,29.79,6,1,14,0.00
2013-1-5,51,36,21,31,20,14,76,54,25,29.93,29.78,4,1,8,0.00
2013-1-6,53,40,37,36,31,25,85,70,43,29.78,29.64,6,1,15,0.00
2013-1-7,56,37,25,28,22,18,77,58,23,29.93,29.76,5,1,13,0.00
2013-1-8,56,36,22,42,28,16,82,71,52,29.98,29.86,4,1,9,0.00
2013-1-9,53,47,42,46,41,36,84,81,77,30.04,29.93,1,0,3,0.00
2013-1-10,65,52,42,52,44,38,86,75,53,30.05,29.88,5,1,12,0.01
2013-1-11,60,57,55,54,51,48,82,80,76,29.88,29.73,6,2,13,0.52
2013-1-12,70,64,59,59,56,53,83,78,63,29.79,29.72,4,1,8,0.07
2013-1-13,65,62,60,54,53,51,80,71,64,29.74,29.66,4,2,10,0.51
2013-1-14,63,60,53,56,54,47,83,80,74,29.74,29.64,6,2,11,0.94
2013-1-15,59,57,52,54,52,47,85,82,80,29.72,29.57,3,1,9,1.41
2013-1-16,64,56,52,54,50,47,83,79,57,29.62,29.52,3,1,8,0.35
2013-1-17,52,48,35,48,43,27,85,82,69,29.77,29.28,4,1,14,1.25
2013-1-18,54,37,27,29,24,18,80,61,27,30.02,29.77,2,0,6,0.00
2013-1-19,56,36,24,31,23,17,82,64,25,29.99,29.77,4,1,12,0.00
2013-1-20,60,38,26,33,24,19,81,61,24,29.77,29.64,6,1,14,0.00
2013-1-21,54,36,24,30,19,9,80,54,24,29.70,29.59,6,2,17,0.00
2013-1-22,40,30,24,12,1,-4,44,29,21,29.78,29.64,7,4,18,0.00
2013-1-23,50,37,26,27,15,-2,64,42,27,29.84,29.66,5,2,14,0.00
2013-1-24,47,40,26,30,15,0,65,39,21,29.91,29.61,8,3,21,0.00
2013-1-25,32,28,23,28,14,-4,82,58,26,29.93,29.63,4,2,14,0.04
2013-1-26,54,35,27,37,27,20,84,72,30,29.88,29.66,2,0,5,0.07
2013-1-27,50,36,23,32,25,17,80,65,46,30.00,29.86,5,2,14,0.00
2013-1-28,62,47,39,47,36,27,81,67,57,29.96,29.83,4,1,8,0.00
2013-1-29,62,51,38,54,44,34,86,79,70,29.86,29.60,4,1,11,0.22
2013-1-30,62,57,43,55,50,34,81,77,67,29.60,29.16,8,3,19,2.59
2013-1-31,44,36,31,34,20,11,70,53,27,29.63,29.26,8,3,21,0.00
2013-2-1,41,31,21,26,5,-6,63,33,21,29.89,29.58,8,4,22,0.00
2013-2-2,38,28,18,28,15,0,81,61,22,29.89,29.62,3,0,8,0.02
2013-2-3,46,36,30,32,24,20,78,60,39,29.63,29.50,8,2,19,0.19
2013-2-4,50,37,26,25,19,14,66,50,27,29.68,29.55,4,1,11,0.00
2013-2-5,57,40,30,36,28,22,75,62,34,29.62,29.52,4,1,11,0.00
2013-2-6,63,40,26,35,24,19,81,57,21,29.77,29.61,4,1,7,0.00
2013-5-22,84,77,62,65,62,58,87,62,51,30.03,29.99,7,2,7,0.43
2013-5-23,80,68,61,62,56,49,89,69,42,30.05,29.97,13,2,13,0.17
2013-5-24,72,63,48,50,42,28,74,49,21,30.29,30.03,16,3,16,0.00
2013-5-25,80,57,38,45,38,28,87,57,20,30.34,30.22,8,1,8,0.00
2013-5-26,77,58,46,53,45,40,82,65,36,30.34,30.22,4,1,4,0.00
2013-5-27,83,63,46,60,50,42,88,66,40,30.31,30.20,8,1,8,0.00
2013-5-28,83,69,57,60,56,52,86,64,41,30.27,30.20,7,1,7,0.00
2013-5-29,85,70,59,61,57,54,85,66,41,30.30,30.22,9,1,9,0.00
2013-5-30,82,68,56,60,56,52,87,69,43,30.33,30.23,6,1,6,0.00
2013-5-31,84,70,60,61,58,55,86,67,44,30.29,30.19,7,1,7,0.00
2013-6-1,82,71,62,62,60,56,85,68,48,30.21,30.11,8,1,8,0.06
2013-6-2,75,68,65,67,63,62,90,84,73,30.13,29.99,7,0,7,0.34
2013-6-3,80,69,61,66,61,56,90,76,49,30.08,29.96,4,0,4,0.06
2013-6-4,84,68,56,63,58,52,90,73,44,30.14,30.06,8,0,8,0.00
2013-6-5,85,70,61,65,61,57,88,74,50,30.15,30.02,11,1,11,0.76
2013-6-6,76,68,62,66,62,58,90,82,66,30.07,29.88,4,0,4,0.02
2013-6-7,82,69,64,65,62,57,90,78,48,29.95,29.80,8,0,8,0.15
2013-6-8,81,69,60,65,59,56,89,73,43,30.19,29.94,5,0,5,0.02
2013-6-9,84,68,60,66,61,56,88,79,53,30.22,30.11,8,0,8,0.56
2013-6-10,78,69,64,64,61,56,88,77,49,30.11,30.02,7,1,7,0.61
2013-6-11,85,72,64,66,62,60,90,74,46,30.14,30.05,11,1,11,0.24
2013-6-12,89,73,62,70,64,57,89,74,48,30.16,30.07,5,1,5,0.00
2013-6-13,87,72,64,66,63,60,89,76,44,30.09,29.86,15,1,22,0.54
2013-6-14,83,68,57,62,56,50,89,68,38,30.15,29.95,11,1,11,0.00
2013-6-15,84,66,52,63,55,48,89,69,43,30.23,30.14,5,0,5,0.00
2013-6-16,85,69,55,64,58,51,88,70,46,30.24,30.11,6,0,6,0.01
2013-6-17,79,71,66,68,64,62,87,78,64,30.15,30.04,3,0,3,0.22
2013-6-18,74,69,65,67,64,61,89,84,73,30.06,29.94,4,0,4,0.11
2013-6-19,82,70,63,66,61,58,88,74,48,30.20,30.02,4,0,4,0.00
2013-6-20,82,69,59,65,60,55,88,74,52,30.31,30.19,7,1,7,0.00
2013-6-21,78,68,62,64,60,57,88,77,57,30.33,30.25,4,0,4,0.01
2013-6-22,84,69,59,62,58,54,89,71,40,30.33,30.20,6,0,6,0.00
2013-6-23,83,69,57,66,60,53,88,75,52,30.30,30.20,6,0,6,0.04
2013-6-24,84,72,66,68,64,60,89,77,54,30.31,30.19,4,0,4,0.21
2013-6-25,81,70,63,67,63,58,89,78,55,30.26,30.14,7,0,7,0.02
2013-6-26,85,70,63,68,63,59,89,81,51,30.17,30.04,11,0,11,0.37
2013-6-27,85,74,67,70,65,61,89,75,52,30.09,29.90,15,1,15,1.68
2013-6-28,88,73,65,68,64,61,88,74,44,29.96,29.78,9,1,9,0.00
2013-6-29,84,71,62,64,60,55,87,69,41,29.85,29.78,8,1,8,0.00
2013-6-30,83,67,55,63,58,51,88,74,45,29.92,29.83,4,0,4,0.00
2013-7-1,83,69,64,64,61,59,87,77,50,30.05,29.89,9,1,9,0.44
2013-7-2,84,70,64,66,63,60,89,78,51,30.20,30.03,6,1,6,1.82
2013-7-3,73,67,63,68,63,59,89,87,75,30.28,30.17,5,0,5,1.89
2013-7-4,73,66,63,68,63,59,90,87,82,30.28,30.21,4,0,4,1.50
2013-7-5,78,70,66,66,63,62,88,80,63,30.31,30.23,3,0,3,0.76
2013-7-6,78,70,67,68,65,63,88,82,66,30.28,30.19,5,1,5,1.88
2013-7-7,77,71,68,68,65,63,87,81,67,30.26,30.19,4,0,4,0.05
2013-7-8,86,73,68,68,64,62,85,75,49,30.29,30.20,4,0,4,0.21
2013-7-9,88,73,68,70,65,63,86,77,54,30.27,30.18,4,0,4,0.00
2013-7-10,86,73,69,70,65,63,84,76,52,30.23,30.06,5,1,5,0.28
2013-7-11,79,72,68,68,65,62,86,79,64,30.09,29.98,2,0,2,0.00
2013-7-12,85,72,65,65,62,58,85,73,47,30.08,29.99,5,0,5,0.00
2013-7-13,79,70,65,63,61,58,83,73,57,30.19,30.07,5,0,5,0.00
2013-7-14,74,70,68,68,63,61,85,81,73,30.34,30.17,8,0,8,0.71
2013-7-15,83,72,66,66,63,61,86,75,53,30.40,30.32,3,0,3,0.02
2013-7-16,88,74,67,68,64,62,85,73,51,30.42,30.33,2,0,2,0.01
2013-7-17,87,71,66,68,63,61,85,78,51,30.40,30.27,7,0,7,0.17
2013-7-18,87,73,65,68,63,60,85,73,51,30.34,30.18,2,0,2,0.05
2013-7-19,88,72,67,68,63,60,84,74,48,30.25,30.12,2,0,2,0.00
2013-7-20,83,71,67,67,63,61,84,77,55,30.17,30.08,5,0,5,0.01
2013-7-21,72,70,69,64,64,63,82,80,77,30.12,30.07,0,0,0,0.11
2013-7-22,85,73,68,66,64,62,84,73,49,30.12,29.96,2,0,2,0.00
2013-7-23,85,72,65,67,62,60,82,70,51,30.03,29.92,3,0,3,0.00
2013-7-24,87,72,64,67,62,58,83,71,45,29.99,29.92,2,0,2,0.00
2013-7-25,88,70,62,66,60,56,83,72,47,30.13,29.98,2,0,2,0.17
2013-7-26,82,68,61,66,61,56,85,77,55,30.19,30.10,1,0,2,0.31
2013-7-27,78,70,67,66,63,59,84,77,61,30.12,29.99,0,0,2,0.09
2013-7-28,84,70,63,62,59,54,84,69,42,30.15,30.02,1,0,2,0.00
2013-7-29,85,67,59,62,56,52,83,69,42,30.28,30.13,1,0,2,0.00
2013-7-30,85,68,55,65,58,50,85,70,48,30.31,30.21,1,0,2,0.00
2013-7-31,75,71,68,66,63,61,83,77,68,30.25,30.06,0,0,2,0.17
2013-8-1,84,73,66,67,62,58,84,70,53,30.10,30.00,1,0,2,0.02
2013-8-2,85,74,61,66,62,55,83,68,49,30.15,30.06,1,0,1,0.00
2013-8-3,81,70,63,64,61,57,84,72,54,30.15,30.09,2,0,2,0.00
2013-8-4,86,71,63,64,60,55,84,70,47,30.15,30.08,2,0,2,0.00
2013-8-5,85,70,60,65,59,53,82,69,47,30.17,30.08,1,0,1,0.00
2013-8-6,83,72,65,65,62,58,81,70,53,30.13,30.06,1,0,1,0.00
2013-8-7,76,72,69,67,64,62,82,77,69,30.15,30.10,2,0,2,0.50
2013-8-8,84,72,0,68,65,63,83,75,59,30.18,29.90,3,0,3,0.06
2013-8-9,85,74,68,68,65,62,83,74,54,30.24,29.97,1,0,1,0.04
2013-8-10,82,74,69,70,65,62,83,74,60,30.24,30.02,0,0,0,0.06
2013-8-11,81,73,68,68,64,62,82,74,58,30.31,30.02,0,0,0,0.06
2013-8-12,84,73,68,68,65,62,83,76,56,30.29,29.94,0,0,0,0.34
2013-8-13,82,72,67,68,64,60,83,76,60,30.13,29.84,0,0,0,0.27
2013-8-14,81,69,64,63,60,57,84,73,48,30.20,29.99,0,0,0,0.00
2013-8-15,75,65,58,64,57,51,95,74,56,30.38,29.67,4,0,4,0.11
2013-8-16,74,64,58,64,60,57,100,87,62,30.18,30.00,5,0,5,0.00
2013-8-17,70,64,59,66,61,58,100,91,75,30.19,30.02,3,0,3,0.07
2013-8-18,78,67,62,70,65,62,100,94,75,30.19,29.99,5,0,5,0.25
2013-8-19,78,68,64,71,66,63,100,94,76,30.11,29.90,3,0,3,0.51
2013-8-20,81,70,64,70,67,63,100,90,65,30.13,29.86,4,0,4,0.08
2013-8-21,73,68,66,70,68,65,100,97,89,30.14,29.97,2,0,2,0.00
2013-8-22,81,70,64,74,68,63,100,92,74,30.14,29.80,4,0,4,0.00
2013-8-23,86,71,63,71,66,62,100,85,51,30.10,29.67,4,0,4,0.00
2013-8-24,82,69,63,69,64,60,100,86,61,30.15,29.89,5,0,5,0.00
2013-8-25,81,65,54,65,60,54,100,83,53,30.60,30.08,6,0,6,0.01
2013-8-26,80,66,56,68,61,56,100,84,55,30.51,29.94,8,0,8,0.00
2013-8-27,84,68,59,70,63,57,100,87,50,30.35,29.75,5,0,5,0.00
2013-8-28,87,71,62,72,66,61,100,85,54,30.14,29.62,4,0,4,0.00
2013-8-29,88,73,63,73,67,62,97,84,55,30.07,29.51,4,1,4,0.00
2013-8-30,87,73,65,72,68,64,100,85,58,30.03,29.58,4,0,4,0.00
2013-8-31,82,72,68,74,68,65,96,90,72,29.92,29.60,5,0,5,0.19
2013-9-1,83,72,67,74,69,66,100,90,65,29.89,29.55,4,0,4,0.12
2013-9-2,81,72,67,73,68,65,97,89,71,29.91,29.55,4,0,4,0.00
2013-9-3,84,70,63,71,65,61,100,86,55,29.97,29.62,8,1,8,0.21
2013-9-4,85,69,61,70,64,59,97,87,51,30.10,29.77,4,0,4,0.00
2013-9-5,83,70,63,69,64,60,97,85,54,30.18,29.78,4,0,4,0.43
2013-9-6,81,68,60,66,62,59,100,83,53,30.30,29.81,6,0,6,0.05
2013-9-7,79,68,59,68,62,58,100,84,57,30.22,29.73,4,0,4,0.00
2013-9-8,81,69,61,69,63,59,100,84,53,30.10,29.70,4,0,4,0.00
2013-9-9,85,69,0,70,64,59,100,83,52,30.39,29.72,4,0,4,15.65
2013-9-10,117,70,63,74,64,59,97,84,16,30.59,30.15,15,0,15,2.11
2013-9-11,84,70,62,70,65,60,97,85,58,30.63,30.17,3,0,3,0.00
2013-9-12,79,69,65,70,66,64,97,90,71,30.36,30.04,4,0,4,0.06
2013-9-13,78,67,55,66,59,52,97,79,46,30.34,30.06,5,1,5,0.00
2013-9-14,76,60,49,58,53,47,100,80,46,30.66,30.31,5,1,5,0.00
2013-9-15,78,62,51,62,56,49,97,83,53,30.90,30.36,8,1,8,0.00
2013-9-16,78,65,58,66,60,56,98,84,54,30.69,30.28,4,0,4,0.15
2013-9-17,70,64,60,61,58,55,95,81,64,30.70,30.49,5,1,5,0.00
2013-9-18,71,63,59,60,57,54,92,81,62,30.67,30.45,3,0,3,0.00
2013-9-19,80,70,58,65,62,56,96,78,55,30.62,30.21,4,1,4,0.00
2013-9-20,81,66,59,66,61,58,97,86,55,30.48,30.05,4,0,4,0.00
2013-9-21,67,64,59,65,63,58,97,95,93,30.19,30.02,7,1,7,0.02
2013-9-22,74,60,52,61,56,51,99,87,55,30.44,30.12,4,0,4,0.45
2013-9-23,75,62,56,62,56,54,100,84,54,30.57,30.24,0,0,0,0.00
2013-9-24,72,61,52,62,57,51,100,86,67,30.59,30.23,0,0,0,0.00
2013-9-25,75,62,59,66,60,58,97,93,68,30.34,29.91,2,0,2,8.21
2013-9-26,74,64,59,63,60,58,96,86,63,30.30,30.06,2,0,4,0.01
2013-9-27,75,63,56,62,57,54,97,84,52,30.52,30.22,2,0,4,0.01
2013-9-28,72,59,49,58,54,48,97,84,56,30.68,30.32,2,0,5,0.00
2013-9-29,71,60,52,57,54,50,93,82,56,30.54,30.26,2,0,4,0.00
2013-9-30,73,60,54,59,55,52,95,83,55,30.49,30.17,4,0,7,0.00
2013-10-1,73,60,50,62,56,49,97,86,58,30.51,30.24,2,0,3,0.00
2013-10-2,78,63,56,63,58,54,96,84,54,30.50,30.15,2,0,3,0.00
2013-10-3,79,64,58,63,59,56,95,84,52,30.46,30.13,4,0,5,0.00
2013-10-4,79,64,55,64,58,53,97,84,50,30.54,30.13,2,0,4,0.00
2013-10-5,82,65,57,66,60,55,96,84,53,30.46,30.02,4,0,5,0.00
2013-10-6,79,65,56,67,59,54,96,83,55,30.36,29.94,5,0,9,0.32
2013-10-7,71,63,52,63,57,48,96,83,46,30.35,30.00,4,0,4,0.69
2013-10-8,73,58,49,56,51,48,95,80,51,30.57,30.24,4,0,5,0.00
2013-10-9,73,57,50,57,51,48,96,83,55,30.67,30.24,3,0,6,0.00
2013-10-10,73,58,50,56,51,48,95,81,47,30.55,30.19,4,0,6,0.00
2013-10-11,74,57,49,56,50,47,96,81,44,30.55,30.15,3,0,4,0.00
2013-10-12,76,58,48,58,52,46,96,82,50,30.56,30.20,4,0,4,0.00
2013-10-13,73,61,50,60,55,48,94,82,57,30.59,30.30,2,0,4,0.00
2013-10-14,71,62,56,61,57,54,94,85,64,30.50,30.28,2,0,4,0.00
2013-10-15,69,60,54,58,54,51,94,82,61,30.49,30.21,4,1,7,0.00
2013-10-16,68,59,51,57,54,49,94,84,64,30.49,30.17,2,0,4,0.01
2013-10-17,66,61,56,63,59,54,94,92,90,30.23,30.10,4,0,6,0.19
2013-10-18,70,57,51,54,51,48,95,81,49,30.46,30.14,4,0,7,0.00
2013-10-19,62,54,46,53,48,40,94,81,47,30.39,30.22,4,0,6,0.00
2013-10-20,65,48,37,45,40,34,95,77,33,30.70,30.34,4,0,6,0.00
2013-10-21,66,50,37,51,43,33,95,81,50,30.72,30.30,6,1,8,0.00
2013-10-22,69,56,48,52,48,44,93,77,42,30.42,30.05,4,0,5,0.00
2013-10-23,56,46,35,46,35,26,92,67,41,30.55,30.13,8,1,14,0.00
2013-10-24,56,42,30,37,31,26,86,68,44,30.76,30.09,4,0,8,0.00
2013-10-25,51,40,29,35,23,16,78,55,26,31.03,30.63,4,0,6,0.00
2013-10-26,57,38,23,35,26,17,85,65,32,31.12,30.56,4,0,8,0.00
2013-10-27,65,53,40,48,42,34,84,68,48,30.66,30.32,4,1,7,0.00
2013-10-28,64,54,48,54,48,44,93,82,55,30.68,30.45,4,0,5,0.09
2013-10-29,66,54,47,52,48,45,93,82,51,30.75,30.46,2,0,4,0.00
2013-10-30,74,60,49,55,50,46,90,74,46,30.78,30.30,3,0,4,0.00
2013-10-31,66,61,52,59,53,49,90,76,59,30.53,30.05,8,2,11,0.00
2013-11-1,76,62,45,59,48,30,92,66,21,30.27,29.90,11,2,16,0.00
2013-11-2,65,47,37,50,38,34,97,75,35,30.60,30.16,13,1,18,0.00
2013-11-3,61,46,34,39,34,24,94,68,26,30.83,30.49,4,1,7,0.00
2013-11-4,58,42,30,42,31,28,96,70,37,30.98,30.75,8,1,10,0.00
2013-11-5,65,46,32,38,31,26,93,63,24,31.00,30.63,5,1,8,0.00
2013-11-6,66,53,40,55,47,34,95,80,61,30.81,30.38,7,1,9,0.00
2013-11-7,63,54,41,56,42,25,95,67,30,30.86,30.31,8,2,12,0.00
2013-11-8,58,42,29,29,23,16,78,52,21,31.10,30.76,6,1,11,0.00
2013-11-9,55,40,25,36,27,20,87,64,32,31.31,30.73,6,0,8,0.00
2013-11-10,68,56,37,37,30,23,79,41,20,30.97,30.57,8,2,11,0.00
2013-11-11,64,43,28,37,29,24,89,64,23,31.14,30.55,5,1,8,0.00
2013-11-12,56,38,26,38,27,10,90,65,42,31.17,30.81,9,2,16,0.00
2013-11-13,50,30,17,18,12,6,73,50,21,31.35,30.99,4,1,7,0.00
2013-11-14,60,34,17,23,16,10,80,54,20,31.33,30.80,7,1,9,0.00
2013-11-15,45,36,25,43,30,17,96,80,54,31.10,30.58,2,0,4,0.00
2013-11-16,65,53,44,56,49,43,96,87,63,30.68,30.31,6,1,8,0.00
2013-11-17,60,58,56,58,55,52,94,87,81,30.55,30.19,7,2,9,0.01
2013-11-18,67,57,47,59,42,24,94,62,22,30.48,30.13,8,2,11,0.00
2013-11-19,59,45,32,32,28,24,78,53,28,30.76,30.48,8,1,11,0.00
2013-11-20,55,42,28,31,26,21,83,54,29,30.98,30.69,8,1,10,0.00
2013-11-21,54,48,42,52,42,31,93,78,61,31.05,30.76,4,0,4,0.07
2013-11-22,65,57,52,57,54,51,95,89,75,30.78,30.41,4,1,6,0.12
2013-11-23,57,49,34,56,37,8,96,69,22,30.87,30.44,8,2,12,0.01
2013-11-24,45,33,24,18,10,1,61,39,21,31.22,30.71,10,2,14,0.00
2013-11-25,43,34,26,29,8,-3,83,34,22,31.22,30.88,6,2,11,0.05
2013-11-26,46,41,34,45,39,29,95,92,82,30.91,30.25,4,0,5,3.19
2013-11-27,45,32,22,43,23,10,95,68,51,30.94,30.33,11,4,19,0.11
2013-11-28,48,28,16,25,16,9,78,62,27,31.20,30.94,4,0,6,0.00
2013-11-29,56,33,19,31,22,13,84,67,27,31.32,30.83,4,0,4,0.00
2013-11-30,51,34,22,29,22,17,85,63,28,31.34,30.82,8,1,11,0.00
2013-12-1,58,37,25,37,26,19,85,65,27,31.02,30.48,2,0,4,0.00
2013-12-2,53,42,30,41,35,24,85,76,61,30.65,30.26,2,0,3,0.00
2013-12-3,54,49,43,49,45,40,94,87,79,30.47,30.27,6,1,8,0.05
2013-12-4,65,57,48,55,51,46,92,82,65,30.57,30.27,8,2,14,0.00
2013-12-5,70,62,54,62,58,51,91,87,70,30.49,30.16,7,1,11,0.56
2013-12-6,70,66,56,62,60,53,91,81,69,30.32,30.06,13,4,19,0.70
2013-12-7,56,51,46,53,45,41,90,81,68,30.82,30.31,8,2,9,0.00
2013-12-8,48,42,39,41,38,36,90,86,77,30.80,30.51,8,2,11,0.76
2013-12-9,56,49,40,52,46,37,91,89,84,30.75,30.42,9,1,13,1.04
2013-12-10,53,44,27,50,34,17,92,70,34,31.02,30.34,10,2,17,0.27
2013-12-11,50,31,20,25,19,14,79,63,24,31.24,30.81,3,0,4,0.00
2013-12-12,47,32,24,20,13,3,75,49,21,31.18,30.89,7,1,10,0.00
2013-12-13,51,33,17,24,16,10,75,52,24,31.21,30.75,6,1,10,0.00
2013-12-14,50,45,39,45,37,19,87,75,41,30.79,30.19,5,1,8,0.85
2013-12-15,48,38,27,44,29,18,88,70,55,30.88,30.18,8,2,12,0.01
2013-12-16,54,33,24,32,22,18,84,66,25,31.03,30.64,10,1,13,0.00
2013-12-17,59,47,24,34,27,18,84,48,27,30.99,30.50,13,4,21,0.00
2013-12-18,53,37,26,20,13,2,65,39,21,31.04,30.63,11,2,17,0.00
2013-12-19,65,41,21,24,18,14,74,45,19,31.14,30.61,7,2,10,0.00
2013-12-20,63,47,30,46,32,21,75,57,26,30.94,30.57,8,2,14,0.00
2013-12-21,66,59,55,60,54,46,92,83,73,30.58,30.17,14,4,18,0.50
2013-12-22,68,59,55,60,55,52,92,86,68,30.45,30.09,20,3,24,4.20
2013-12-23,55,49,38,53,43,31,93,82,64,31.01,30.42,7,1,9,0.01
2013-12-24,38,31,21,31,18,9,78,60,33,31.41,31.00,3,0,6,0.00
2013-12-25,41,27,16,20,13,8,76,58,27,31.33,30.96,0,0,0,0.00
2013-12-26,50,30,20,24,18,14,77,62,27,31.17,29.92,5,0,8,0.00
2013-12-27,52,32,20,28,20,13,79,65,27,29.92,29.92,2,0,3,0.00
2013-12-28,36,30,21,32,24,15,85,78,65,29.92,29.92,0,0,1,0.43
2013-12-29,55,45,36,46,39,30,91,78,59,29.92,29.92,7,0,8,0.22
2013-12-30,50,43,38,36,33,25,75,66,49,29.92,29.92,0,0,0,0.00
2013-12-31,45,35,0,30,20,10,76,57,25,29.92,29.92,172,0,172,0.00
2014-1-1,46,29,24,28,21,19,83,73,37,29.92,29.92,8,0,10,0.00
2014-1-2,47,36,21,45,29,3,94,77,46,30.21,29.52,15,3,22,0.26